Time;durP1;ratioP1;P1;durP2;ratioP2;P2;SDS_P1;SDS_P2;PMS_P1;PMS_P2;Temp;Humidity;BMP_temperature;BMP_pressure;BME280_temperature;BME280_humidity;BME280_pressure;Samples;Min_cycle;Max_cycle;Signal;HPM_P1;HPM_P2
2022/05/26 00:00:12;;;;;;;9.63;4.25;;;;;;;15.21;100.00;151473.97;1704049;84;21059;-63
2022/05/26 00:02:40;;;;;;;6.47;3.77;;;;;;;15.22;100.00;151476.56;1706438;84;21277;-63
2022/05/26 00:05:08;;;;;;;10.13;3.52;;;;;;;15.22;100.00;151476.56;1706496;84;21023;-63
2022/05/26 00:07:36;;;;;;;7.47;3.70;;;;;;;15.23;100.00;151479.16;1706156;84;21075;-63
2022/05/26 00:10:04;;;;;;;10.60;4.05;;;;;;;15.25;100.00;151484.37;1732205;82;21017;-63
2022/05/26 00:12:31;;;;;;;6.03;4.03;;;;;;;15.26;100.00;151486.97;1735619;82;21004;-63
2022/05/26 00:14:58;;;;;;;6.67;3.80;;;;;;;15.29;100.00;151496.09;1735945;82;21212;-63
2022/05/26 00:17:25;;;;;;;5.47;3.58;;;;;;;15.27;100.00;151490.91;1735566;82;21575;-63
2022/05/26 00:19:54;;;;;;;7.78;4.15;;;;;;;15.27;100.00;151489.56;1735998;82;20967;-63
2022/05/26 00:22:21;;;;;;;7.72;3.92;;;;;;;15.27;100.00;151489.56;1735851;82;21492;-63
2022/05/26 00:24:48;;;;;;;5.80;3.60;;;;;;;15.25;100.00;151484.37;1735953;82;21543;-63
2022/05/26 00:27:15;;;;;;;8.33;3.90;;;;;;;15.25;100.00;151485.69;1735566;82;22165;-63
2022/05/26 00:29:42;;;;;;;14.40;3.67;;;;;;;15.23;100.00;151479.16;1735918;82;21055;-64
2022/05/26 00:32:09;;;;;;;6.75;3.72;;;;;;;15.23;100.00;151479.16;1725417;82;21063;-64
2022/05/26 00:34:36;;;;;;;7.47;3.85;;;;;;;15.21;100.00;151473.97;1702935;84;21000;-63
2022/05/26 00:37:07;;;;;;;8.55;4.03;;;;;;;15.20;100.00;151471.36;1702970;84;21114;-63
2022/05/26 00:39:34;;;;;;;7.08;3.70;;;;;;;15.20;100.00;151471.36;1703183;84;21470;-62
2022/05/26 00:42:05;;;;;;;6.58;3.70;;;;;;;15.18;100.00;151468.75;1703129;84;21467;-63
2022/05/26 00:44:33;;;;;;;6.42;3.90;;;;;;;15.18;100.00;151467.44;1703197;84;21066;-62
2022/05/26 00:47:05;;;;;;;7.53;4.08;;;;;;;15.15;100.00;151460.95;1702825;84;21039;-62
2022/05/26 00:50:01;;;;;;;5.50;3.77;;;;;;;15.15;100.00;151460.95;1703547;84;21059;-62
2022/05/26 00:52:54;;;;;;;9.95;3.95;;;;;;;15.16;100.00;151463.56;1701810;84;21153;-62
2022/05/26 00:55:31;;;;;;;9.93;4.72;;;;;;;15.15;100.00;151460.95;1692563;84;21012;-67
2022/05/26 00:58:12;;;;;;;8.25;4.40;;;;;;;15.15;100.00;151460.95;1692596;84;21091;-63
2022/05/26 01:00:40;;;;;;;6.75;3.83;;;;;;;15.14;100.00;151458.34;1692750;84;21104;-65
2022/05/26 01:03:23;;;;;;;9.13;4.55;;;;;;;15.17;100.00;151464.83;1692820;84;21029;-63
2022/05/26 01:06:12;;;;;;;8.20;3.77;;;;;;;15.15;100.00;151460.95;1692778;84;21151;-64
2022/05/26 01:08:48;;;;;;;4.70;3.70;;;;;;;15.15;100.00;151459.63;1701800;83;21075;-63
2022/05/26 01:11:16;;;;;;;7.80;3.90;;;;;;;15.13;100.00;151454.42;1725638;81;20948;-62
2022/05/26 01:13:49;;;;;;;7.05;3.77;;;;;;;15.12;100.00;151451.83;1725446;83;21060;-63
2022/05/26 01:16:33;;;;;;;8.70;3.98;;;;;;;15.14;100.00;151457.03;1725611;83;21060;-63
2022/05/26 01:19:35;;;;;;;7.87;4.03;;;;;;;15.14;100.00;151458.34;1725277;83;22325;-63
2022/05/26 01:22:44;;;;;;;6.42;4.00;;;;;;;15.18;100.00;151468.75;1690074;83;20992;-63
2022/05/26 01:26:01;;;;;;;9.93;4.22;;;;;;;15.18;100.00;151468.75;1725713;83;21076;-64
2022/05/26 01:29:04;;;;;;;7.40;4.35;;;;;;;15.21;100.00;151473.97;1724765;82;21127;-64
2022/05/26 01:31:40;;;;;;;8.20;4.40;;;;;;;15.21;100.00;151475.23;1722830;83;21513;-63
2022/05/26 01:34:45;;;;;;;6.47;3.72;;;;;;;15.24;100.00;151481.77;1692917;84;22189;-63
2022/05/26 01:37:51;;;;;;;12.15;4.25;;;;;;;15.26;100.00;151486.97;1693010;84;21044;-66
2022/05/26 01:40:30;;;;;;;;;;;;;;;15.24;100.00;151483.03;1695084;84;21044;-63
2022/05/26 01:43:06;;;;;;;7.83;3.87;;;;;;;15.23;100.00;151479.16;1692974;84;20649;-63
2022/05/26 01:45:42;;;;;;;8.00;4.12;;;;;;;15.25;100.00;151484.37;1693108;84;21032;-63
2022/05/26 01:48:39;;;;;;;6.87;3.95;;;;;;;15.25;100.00;151484.37;1692679;84;21373;-63
2022/05/26 01:51:24;;;;;;;9.58;4.42;;;;;;;15.27;100.00;151490.91;1692464;84;21424;-62
2022/05/26 01:54:21;;;;;;;10.65;4.30;;;;;;;15.31;100.00;151499.97;1695272;84;20981;-63
2022/05/26 01:56:56;;;;;;;11.45;4.08;;;;;;;15.33;100.00;151506.50;1698026;84;21044;-63
2022/05/26 01:59:30;;;;;;;9.45;4.05;;;;;;;15.35;100.00;151510.38;1697856;84;21048;-63
2022/05/26 02:02:02;;;;;;;8.80;3.98;;;;;;;15.33;100.00;151506.50;1698481;84;21567;-63
2022/05/26 02:04:49;;;;;;;7.40;4.00;;;;;;;15.36;100.00;151511.72;1697510;84;21088;-63
2022/05/26 02:07:27;;;;;;;7.67;4.10;;;;;;;15.34;100.00;151507.78;1698255;84;21072;-63
2022/05/26 02:09:54;;;;;;;7.95;4.30;;;;;;;15.34;100.00;151507.78;1722226;82;20972;-62
2022/05/26 02:12:36;;;;;;;7.72;3.85;;;;;;;15.33;100.00;151505.19;1733064;82;21363;-66
2022/05/26 02:15:07;;;;;;;7.47;3.77;;;;;;;15.36;100.00;151512.98;1732963;82;21864;-67
2022/05/26 02:17:52;;;;;;;12.95;4.03;;;;;;;15.34;100.00;151507.78;1733058;82;21004;-65
2022/05/26 02:20:28;;;;;;;4.90;3.72;;;;;;;15.38;100.00;151518.23;1732768;82;21092;-67
2022/05/26 02:23:05;;;;;;;6.78;3.75;;;;;;;15.37;100.00;151515.64;1733234;82;21517;-66
2022/05/26 02:25:34;;;;;;;8.20;3.58;;;;;;;15.41;100.00;151526.05;1733113;82;21024;-67
2022/05/26 02:28:05;;;;;;;7.33;3.42;;;;;;;15.46;100.00;151537.73;1732887;82;21433;-68
2022/05/26 02:30:37;;;;;;;8.90;3.30;;;;;;;15.47;100.00;151541.66;1732269;82;21079;-66
2022/05/26 02:33:07;;;;;;;7.42;3.22;;;;;;;15.54;100.00;151558.59;1708125;82;21084;-67
2022/05/26 02:35:38;;;;;;;7.87;3.52;;;;;;;15.56;100.00;151562.47;1697701;84;21012;-66
2022/05/26 02:38:18;;;;;;;6.85;3.52;;;;;;;15.60;100.00;151572.94;1697565;84;21071;-67
2022/05/26 02:40:47;;;;;;;8.35;3.45;;;;;;;15.65;100.00;151585.94;1697637;84;21232;-65
2022/05/26 02:43:23;;;;;;;7.60;3.52;;;;;;;15.63;100.00;151580.73;1697821;84;21109;-67
2022/05/26 02:46:31;;;;;;;8.03;3.30;;;;;;;15.68;100.00;151593.75;1698044;84;21037;-67
2022/05/26 02:49:10;;;;;;;9.98;3.25;;;;;;;15.73;100.00;151605.48;1697855;84;21080;-66
2022/05/26 02:51:50;;;;;;;6.22;3.27;;;;;;;15.79;100.00;151619.78;1697508;84;21096;-68
2022/05/26 02:54:50;;;;;;;11.40;3.10;;;;;;;15.82;100.00;151627.63;1697635;84;21341;-66
2022/05/26 02:57:27;;;;;;;7.15;3.02;;;;;;;15.87;100.00;151641.92;1698038;84;21011;-67
2022/05/26 03:00:12;;;;;;;7.42;3.12;;;;;;;15.94;100.00;151657.64;1696618;84;21611;-65
2022/05/26 03:03:08;;;;;;;4.80;2.37;;;;;;;16.07;100.00;151690.19;1669901;84;21107;-67
2022/05/26 03:05:44;;;;;;;9.08;2.60;;;;;;;16.20;100.00;151722.77;1697904;84;21077;-65
2022/05/26 03:08:14;;;;;;;5.10;2.67;;;;;;;16.30;100.00;151750.12;1701656;82;21228;-66
2022/05/26 03:10:50;;;;;;;5.87;2.22;;;;;;;16.39;99.82;151772.28;1704372;82;21500;-66
2022/05/26 03:13:17;;;;;;;6.10;2.75;;;;;;;16.47;99.34;151793.11;1731332;82;21540;-65
2022/05/26 03:15:45;;;;;;;7.30;2.90;;;;;;;16.56;98.69;151813.94;1732812;82;21131;-68
2022/05/26 03:18:12;;;;;;;5.87;2.67;;;;;;;16.64;98.04;151833.50;1732755;82;21877;-65
2022/05/26 03:20:39;;;;;;;9.18;2.45;;;;;;;16.70;97.61;151850.44;1732619;82;21639;-66
2022/05/26 03:23:07;;;;;;;9.23;3.00;;;;;;;16.79;97.13;151872.59;1732710;82;20996;-65
2022/05/26 03:25:34;;;;;;;4.62;2.47;;;;;;;16.85;96.66;151888.23;1733044;82;21040;-65
2022/05/26 03:28:01;;;;;;;9.18;2.87;;;;;;;16.94;96.36;151909.13;1732958;82;20997;-65
2022/05/26 03:30:28;;;;;;;6.97;2.37;;;;;;;17.00;95.97;151926.06;1732857;82;21032;-65
2022/05/26 03:32:56;;;;;;;6.20;2.98;;;;;;;17.09;95.55;151948.23;1710175;82;21152;-66
2022/05/26 03:40:56;;;;;;;5.00;2.40;;;;;;;17.24;94.26;151984.75;1697743;84;21457;-67
2022/05/26 03:43:30;;;;;;;6.65;2.50;;;;;;;17.21;93.88;151978.22;1697777;84;21097;-64
2022/05/26 03:45:59;;;;;;;9.70;2.70;;;;;;;17.21;93.95;151978.22;1670308;84;21122;-65
2022/05/26 03:48:27;;;;;;;7.45;3.42;;;;;;;17.25;93.76;151987.36;1695510;84;21005;-67
2022/05/26 03:50:54;;;;;;;7.30;2.30;;;;;;;17.28;93.61;151996.50;1695333;84;21107;-64
2022/05/26 03:53:21;;;;;;;6.53;2.60;;;;;;;17.35;93.54;152012.14;1699776;83;21482;-64
2022/05/26 03:55:48;;;;;;;6.58;2.75;;;;;;;17.45;93.46;152038.19;1701155;84;21538;-65
2022/05/26 03:58:17;;;;;;;7.00;2.70;;;;;;;17.55;92.97;152062.97;1701206;84;21175;-66
2022/05/26 04:00:44;;;;;;;7.37;2.67;;;;;;;17.59;92.50;152073.44;1700903;83;21046;-67
2022/05/26 04:03:12;;;;;;;7.70;2.50;;;;;;;17.64;92.33;152085.14;1700713;84;21582;-66
2022/05/26 04:05:39;;;;;;;5.80;2.25;;;;;;;17.68;91.96;152096.89;1693841;84;21089;-68
2022/05/26 04:08:07;;;;;;;6.33;2.40;;;;;;;17.71;91.77;152104.70;1695990;83;21082;-66
2022/05/26 04:10:35;;;;;;;5.65;2.70;;;;;;;17.78;91.70;152120.34;1722406;83;21178;-67
2022/05/26 04:13:04;;;;;;;8.03;2.50;;;;;;;17.86;91.42;152141.25;1722589;83;21000;-67
2022/05/26 04:15:31;;;;;;;6.90;2.90;;;;;;;17.94;91.22;152162.09;1722153;83;21005;-65
2022/05/26 04:17:58;;;;;;;9.38;3.10;;;;;;;18.09;90.90;152198.69;1722435;83;21088;-67
2022/05/26 04:20:26;;;;;;;9.15;2.50;;;;;;;18.25;90.43;152240.44;1722596;83;21562;-67
2022/05/26 04:22:53;;;;;;;5.37;2.60;;;;;;;18.44;90.04;152287.36;1722496;83;21750;-66
2022/05/26 04:25:22;;;;;;;7.12;2.55;;;;;;;18.64;88.96;152338.28;1722538;83;21124;-68
2022/05/26 04:27:49;;;;;;;7.17;2.90;;;;;;;18.82;88.00;152382.66;1722745;83;21000;-66
2022/05/26 04:30:16;;;;;;;4.35;2.25;;;;;;;18.94;87.09;152412.67;1722798;83;20933;-67
2022/05/26 04:32:43;;;;;;;6.67;2.27;;;;;;;19.09;86.35;152451.84;1713381;83;21041;-68
2022/05/26 04:35:11;;;;;;;3.90;2.10;;;;;;;19.23;85.64;152485.80;1705829;84;21925;-66
2022/05/26 04:37:39;;;;;;;5.20;2.50;;;;;;;19.37;84.70;152522.38;1705894;84;21534;-67
2022/05/26 04:40:08;;;;;;;6.28;2.58;;;;;;;19.43;83.68;152538.03;1705850;83;21053;-68
2022/05/26 04:42:36;;;;;;;7.62;2.20;;;;;;;19.45;83.30;152543.25;1720827;82;21114;-64
2022/05/26 04:45:05;;;;;;;11.43;2.55;;;;;;;19.47;82.82;152547.19;1720679;83;21131;-66
2022/05/26 04:47:32;;;;;;;7.95;2.70;;;;;;;19.52;82.50;152560.22;1721189;82;21490;-66
2022/05/26 04:49:59;;;;;;;3.58;2.00;;;;;;;19.52;82.27;152558.91;1721022;83;21457;-64
2022/05/26 04:52:27;;;;;;;5.55;2.45;;;;;;;19.57;82.03;152571.98;1720890;83;20985;-66
2022/05/26 04:54:54;;;;;;;4.37;2.37;;;;;;;19.61;81.89;152582.42;1720728;83;21585;-65
2022/05/26 04:57:23;;;;;;;7.15;2.37;;;;;;;19.71;81.64;152608.52;1721192;83;21037;-65
2022/05/26 04:59:50;;;;;;;8.25;2.27;;;;;;;19.80;80.91;152629.44;1721309;83;21368;-68
2022/05/26 05:02:18;;;;;;;6.25;2.22;;;;;;;19.89;80.60;152654.27;1720939;83;21072;-65
2022/05/26 05:04:48;;;;;;;8.50;2.15;;;;;;;19.93;79.96;152663.41;1721008;83;21017;-67
2022/05/26 05:07:17;;;;;;;5.92;2.12;;;;;;;19.95;79.78;152668.62;1716186;83;21099;-68
2022/05/26 05:09:45;;;;;;;7.42;2.47;;;;;;;19.93;79.20;152663.41;1723014;83;21493;-67
2022/05/26 05:12:16;;;;;;;8.40;2.33;;;;;;;19.86;78.94;152645.09;1725299;83;21254;-68
2022/05/26 05:14:46;;;;;;;8.18;2.50;;;;;;;19.75;78.88;152618.95;1725221;83;21017;-67
2022/05/26 05:17:14;;;;;;;9.20;2.70;;;;;;;19.63;79.06;152587.64;1725278;83;21021;-67
2022/05/26 05:19:41;;;;;;;6.40;2.20;;;;;;;19.56;79.29;152570.66;1725339;83;21087;-64
2022/05/26 05:22:34;;;;;;;7.28;2.22;;;;;;;19.50;79.58;152553.69;1725333;83;21469;-64
2022/05/26 05:25:09;;;;;;;8.00;2.40;;;;;;;19.42;79.58;152534.09;1725406;83;21335;-64
2022/05/26 05:28:00;;;;;;;8.90;2.20;;;;;;;19.28;79.98;152500.17;1724977;83;21088;-62
2022/05/26 05:30:43;;;;;;;5.40;2.00;;;;;;;19.18;80.50;152475.38;1717921;81;21083;-62
2022/05/26 05:33:21;;;;;;;7.27;2.40;;;;;;;19.07;80.80;152446.63;1702771;81;21097;-62
2022/05/26 05:36:05;;;;;;;7.80;2.50;;;;;;;18.92;81.57;152407.45;1718638;82;21053;-62
2022/05/26 05:38:33;;;;;;;6.97;2.30;;;;;;;18.83;82.35;152386.55;1716523;82;21449;-62
2022/05/26 05:41:04;;;;;;;7.92;2.20;;;;;;;18.76;82.95;152369.58;1711551;82;21589;-63
2022/05/26 05:43:31;;;;;;;7.90;2.62;;;;;;;18.69;83.48;152350.03;1716866;82;21080;-64
2022/05/26 05:45:59;;;;;;;3.50;2.12;;;;;;;18.64;83.64;152336.95;1705090;81;21004;-63
2022/05/26 05:48:26;;;;;;;4.97;2.30;;;;;;;18.53;84.17;152310.88;1709194;82;21532;-63
2022/05/26 05:50:53;;;;;;;6.17;2.85;;;;;;;18.50;84.67;152303.06;1712161;82;21571;-63
2022/05/26 05:53:20;;;;;;;7.67;2.52;;;;;;;18.46;84.60;152292.62;1708762;82;21481;-66
2022/05/26 05:55:48;;;;;;;8.65;2.50;;;;;;;18.40;84.94;152276.94;1719303;82;21098;-66
2022/05/26 05:58:16;;;;;;;5.70;2.72;;;;;;;18.35;85.16;152265.22;1714589;82;21063;-67
2022/05/26 06:00:43;;;;;;;8.08;2.90;;;;;;;18.28;85.06;152248.25;1719901;82;21045;-66
2022/05/26 06:03:10;;;;;;;7.85;2.72;;;;;;;18.21;85.46;152229.97;1719178;82;21258;-67
2022/05/26 06:05:37;;;;;;;9.90;2.67;;;;;;;18.13;85.75;152209.11;1717900;82;21051;-67
2022/05/26 06:08:06;;;;;;;8.63;2.90;;;;;;;18.07;86.31;152193.47;1720867;82;21518;-63
2022/05/26 06:10:34;;;;;;;10.05;2.55;;;;;;;18.06;86.54;152190.86;1685153;85;21034;-67
2022/05/26 06:13:03;;;;;;;7.30;2.90;;;;;;;18.03;86.59;152185.66;1686400;84;21070;-66
2022/05/26 06:15:30;;;;;;;8.33;2.98;;;;;;;18.00;86.61;152177.73;1682502;84;21240;-65
2022/05/26 06:17:57;;;;;;;7.22;2.80;;;;;;;17.97;86.84;152168.63;1673061;85;21064;-66
2022/05/26 06:20:24;;;;;;;7.47;3.00;;;;;;;17.94;87.16;152160.81;1714555;82;21358;-63
2022/05/26 06:22:52;;;;;;;9.70;2.75;;;;;;;17.92;87.47;152156.88;1729595;82;21126;-62
2022/05/26 06:25:20;;;;;;;7.33;2.70;;;;;;;17.90;87.57;152151.67;1715435;82;21060;-62
2022/05/26 06:30:34;;;;;;;5.20;2.58;;;;;;;17.89;88.63;152150.34;1726190;83;21102;-67
2022/05/26 06:38:40;;;;;;;10.28;4.03;;;;;;;17.72;89.16;152107.31;1725260;82;22210;-66
2022/05/26 06:43:58;;;;;;;6.42;3.30;;;;;;;17.69;90.16;152099.50;1724106;82;21027;-66
2022/05/26 06:46:25;;;;;;;7.12;2.90;;;;;;;17.69;90.38;152098.22;1728790;82;21035;-66
2022/05/26 06:48:53;;;;;;;7.10;2.60;;;;;;;17.67;90.96;152094.28;1716858;83;21036;-66
2022/05/26 06:51:22;;;;;;;7.70;3.10;;;;;;;17.69;91.50;152099.50;1729658;82;21038;-62
2022/05/26 06:53:49;;;;;;;5.37;2.98;;;;;;;17.71;91.76;152104.70;1723395;82;21255;-64
2022/05/26 06:56:17;;;;;;;4.75;2.60;;;;;;;17.69;91.90;152099.50;1721825;81;21129;-61
2022/05/26 06:58:44;;;;;;;7.37;3.17;;;;;;;17.65;92.01;152089.06;1718833;82;21048;-61
2022/05/26 07:01:13;;;;;;;7.20;3.35;;;;;;;17.58;92.53;152072.11;1712959;81;21025;-63
2022/05/26 07:03:42;;;;;;;8.55;3.45;;;;;;;17.52;92.88;152055.16;1710221;83;21051;-62
2022/05/26 07:06:19;;;;;;;9.73;3.25;;;;;;;17.43;93.64;152034.31;1712237;83;21019;-64
2022/05/26 07:08:46;;;;;;;12.30;3.50;;;;;;;17.40;94.31;152026.48;1703193;83;21036;-63
2022/05/26 07:11:14;;;;;;;10.53;3.42;;;;;;;17.38;94.84;152019.95;1712013;83;21056;-61
2022/05/26 07:13:41;;;;;;;7.78;3.72;;;;;;;17.32;95.34;152006.92;1715749;82;21654;-65
2022/05/26 07:16:10;;;;;;;9.23;3.90;;;;;;;17.33;95.99;152008.20;1720562;83;21080;-66
2022/05/26 07:18:38;;;;;;;8.58;3.60;;;;;;;17.33;96.47;152008.20;1715803;83;21787;-66
2022/05/26 07:21:07;;;;;;;7.35;4.00;;;;;;;17.35;96.98;152012.14;1721654;83;21039;-66
2022/05/26 07:23:34;;;;;;;12.60;4.22;;;;;;;17.37;97.02;152018.67;1721388;83;21034;-67
2022/05/26 07:26:06;;;;;;;9.35;3.40;;;;;;;17.39;97.22;152023.89;1722216;81;21171;-66
2022/05/26 07:28:35;;;;;;;7.37;3.70;;;;;;;17.41;97.24;152029.09;1709526;83;21119;-66
2022/05/26 07:31:02;;;;;;;8.98;3.90;;;;;;;17.39;97.22;152023.89;1709023;83;21272;-66
2022/05/26 07:33:29;;;;;;;8.48;3.52;;;;;;;17.43;98.00;152034.31;1721174;83;21182;-65
2022/05/26 07:35:56;;;;;;;11.05;3.83;;;;;;;17.51;97.98;152052.55;1701780;83;21084;-67
2022/05/26 07:41:19;;;;;;;9.98;3.58;;;;;;;17.52;98.11;152055.16;1721684;83;21478;-65
2022/05/26 07:43:52;;;;;;;9.55;3.67;;;;;;;17.53;98.26;152059.08;1722111;83;21950;-67
2022/05/26 07:46:22;;;;;;;12.55;3.95;;;;;;;17.52;98.38;152055.16;1720843;82;21003;-66
2022/05/26 07:48:49;;;;;;;10.30;3.58;;;;;;;17.56;98.78;152065.56;1718439;83;21345;-66
2022/05/26 07:51:19;;;;;;;13.18;3.30;;;;;;;17.57;98.77;152068.19;1720968;82;21044;-65
2022/05/26 07:53:46;;;;;;;8.85;3.67;;;;;;;17.61;98.98;152078.66;1720683;83;21073;-66
2022/05/26 07:56:14;;;;;;;8.60;2.90;;;;;;;17.63;99.08;152082.53;1711082;83;21287;-66
2022/05/26 07:58:43;;;;;;;8.18;3.35;;;;;;;17.67;99.58;152094.28;1721730;83;20993;-66
2022/05/26 08:01:11;;;;;;;6.78;2.72;;;;;;;17.74;99.27;152111.25;1717520;82;21517;-67
2022/05/26 08:03:38;;;;;;;10.88;3.98;;;;;;;17.79;99.46;152122.95;1719451;83;21473;-66
2022/05/26 08:06:06;;;;;;;9.93;3.40;;;;;;;17.88;99.39;152146.45;1720189;82;21605;-68
2022/05/26 08:08:34;;;;;;;8.95;3.10;;;;;;;17.93;99.06;152159.48;1713472;83;22837;-66
2022/05/26 08:11:00;;;;;;;9.05;3.35;;;;;;;17.94;99.10;152162.09;1717767;83;21086;-66
2022/05/26 08:13:29;;;;;;;7.47;3.10;;;;;;;17.98;98.90;152171.23;1714142;83;21170;-67
2022/05/26 08:15:56;;;;;;;6.80;3.17;;;;;;;17.96;98.60;152167.31;1705797;83;21059;-67
2022/05/26 08:18:23;;;;;;;8.75;3.72;;;;;;;17.95;98.58;152163.42;1695439;83;21099;-66
2022/05/26 08:20:50;;;;;;;7.33;3.25;;;;;;;17.98;98.40;152171.23;1722009;83;22862;-66
2022/05/26 08:23:23;;;;;;;9.58;3.60;;;;;;;18.01;98.14;152180.39;1713188;83;21070;-67
2022/05/26 08:25:48;;;;;;;8.35;3.05;;;;;;;18.06;97.85;152190.86;1711604;83;21232;-66
2022/05/26 08:28:15;;;;;;;6.95;2.80;;;;;;;18.04;97.65;152188.25;1702840;83;21285;-67
2022/05/26 08:30:43;;;;;;;9.73;2.75;;;;;;;18.07;97.62;152193.47;1697593;81;21026;-67
2022/05/26 08:33:10;;;;;;;8.48;2.70;;;;;;;18.04;97.55;152188.25;1713981;82;21229;-67
2022/05/26 08:35:37;;;;;;;8.68;3.30;;;;;;;18.02;97.42;152183.03;1721761;83;21095;-67
2022/05/26 08:38:05;;;;;;;8.08;3.92;;;;;;;17.99;97.69;152175.13;1716460;83;21549;-67
2022/05/26 08:40:40;;;;;;;6.58;3.08;;;;;;;17.98;97.72;152171.23;1710350;83;21117;-66
2022/05/26 08:43:13;;;;;;;6.92;3.10;;;;;;;17.96;97.88;152167.31;1715879;83;21038;-67
2022/05/26 08:45:44;;;;;;;9.70;2.90;;;;;;;17.95;98.16;152163.42;1713787;83;21741;-67
2022/05/26 08:48:12;;;;;;;7.87;2.67;;;;;;;17.95;98.22;152164.70;1719522;83;21047;-67
2022/05/26 08:50:40;;;;;;;7.12;3.00;;;;;;;17.94;98.45;152162.09;1720885;83;20984;-65
2022/05/26 08:53:13;;;;;;;8.83;2.70;;;;;;;17.92;98.73;152156.88;1713278;82;20996;-66
2022/05/26 08:55:44;;;;;;;9.40;2.85;;;;;;;17.92;98.62;152156.88;1710813;83;21640;-66
2022/05/26 08:58:19;;;;;;;8.38;3.08;;;;;;;17.92;99.01;152156.88;1715078;83;21370;-66
2022/05/26 09:00:48;;;;;;;8.88;2.85;;;;;;;17.98;99.39;152172.52;1713661;83;21462;-67
2022/05/26 09:03:30;;;;;;;7.28;2.80;;;;;;;18.05;99.36;152189.53;1711961;83;20992;-67
2022/05/26 09:06:04;;;;;;;6.50;2.70;;;;;;;18.15;99.86;152214.31;1693687;83;21108;-66
2022/05/26 09:14:32;;;;;;;8.83;3.37;;;;;;;18.46;100.00;152292.62;1708500;83;21000;-67
2022/05/26 09:17:10;;;;;;;5.53;3.40;;;;;;;18.46;99.19;152292.62;1708556;83;21123;-67
2022/05/26 09:19:49;;;;;;;10.28;3.37;;;;;;;18.49;99.59;152300.44;1724516;81;21615;-67
2022/05/26 09:22:45;;;;;;;5.08;3.33;;;;;;;18.54;99.39;152312.16;1725536;81;21054;-67
2022/05/26 09:25:36;;;;;;;3.60;2.72;;;;;;;18.58;99.70;152323.91;1725069;81;21207;-63
2022/05/26 09:28:04;;;;;;;5.10;3.27;;;;;;;18.60;98.45;152327.84;1734430;81;21033;-62
2022/05/26 09:30:33;;;;;;;4.50;3.30;;;;;;;18.58;97.38;152323.91;1728249;81;21551;-66
2022/05/26 09:33:01;;;;;;;6.58;3.60;;;;;;;18.63;97.70;152335.67;1723057;81;21100;-67
2022/05/26 09:35:31;;;;;;;9.35;3.60;;;;;;;18.77;97.41;152370.91;1716817;81;22005;-60
2022/05/26 09:38:02;;;;;;;6.30;3.37;;;;;;;18.88;97.25;152398.31;1724226;81;21172;-64
2022/05/26 09:40:38;;;;;;;7.08;3.80;;;;;;;19.04;96.84;152438.81;1713716;81;20947;-65
2022/05/26 09:43:19;;;;;;;16.50;4.00;;;;;;;19.15;96.01;152467.55;1721661;81;21545;-66
2022/05/26 09:45:50;;;;;;;5.40;3.27;;;;;;;19.24;95.36;152488.41;1718283;81;21048;-66
2022/05/26 09:48:27;;;;;;;6.15;3.80;;;;;;;19.37;94.94;152522.38;1744909;81;20977;-67
2022/05/26 09:51:08;;;;;;;5.15;3.58;;;;;;;19.46;94.98;152545.84;1710468;81;21226;-65
2022/05/26 09:53:42;;;;;;;5.55;3.70;;;;;;;19.61;94.55;152583.70;1702525;83;21126;-66
2022/05/26 09:56:13;;;;;;;8.08;3.90;;;;;;;19.70;93.84;152605.91;1704160;82;22484;-66
2022/05/26 09:58:42;;;;;;;8.18;4.37;;;;;;;19.81;94.13;152633.33;1701590;83;21105;-66
2022/05/26 10:01:34;;;;;;;9.28;4.00;;;;;;;19.95;93.70;152667.36;1715293;83;21063;-65
2022/05/26 10:04:09;;;;;;;6.90;4.05;;;;;;;20.02;92.60;152686.95;1679010;84;21270;-66
2022/05/26 10:07:04;;;;;;;4.72;3.52;;;;;;;20.08;92.29;152701.28;1670560;84;21087;-65
2022/05/26 10:09:48;;;;;;;6.37;3.70;;;;;;;20.18;91.39;152726.09;1668611;84;21099;-67
2022/05/26 10:12:33;;;;;;;5.83;3.47;;;;;;;20.18;90.36;152726.09;1685412;84;21075;-66
2022/05/26 10:15:18;;;;;;;7.40;3.75;;;;;;;20.21;90.23;152733.94;1685905;84;21076;-66
2022/05/26 10:18:19;;;;;;;8.68;3.37;;;;;;;20.23;89.93;152737.88;1689913;84;21205;-63
2022/05/26 10:21:17;;;;;;;5.62;3.80;;;;;;;20.20;89.58;152730.03;1679332;84;21637;-63
2022/05/26 10:24:27;;;;;;;7.33;3.37;;;;;;;20.22;89.09;152736.55;1710348;83;21272;-64
2022/05/26 10:27:31;;;;;;;5.83;3.40;;;;;;;20.24;88.72;152741.81;1717386;82;21047;-62
2022/05/26 10:30:09;;;;;;;4.75;3.37;;;;;;;20.33;88.31;152765.30;1679430;83;21012;-62
2022/05/26 10:33:20;;;;;;;7.78;3.80;;;;;;;20.41;87.99;152783.58;1719283;83;21215;-63
2022/05/26 10:36:10;;;;;;;5.60;3.67;;;;;;;20.48;87.98;152801.91;1717109;82;21072;-66
2022/05/26 10:39:01;;;;;;;6.40;3.55;;;;;;;20.64;87.70;152841.06;1683704;85;21549;-67
2022/05/26 10:41:48;;;;;;;4.90;3.60;;;;;;;20.68;86.11;152851.55;1708997;83;21918;-66
2022/05/26 10:44:35;;;;;;;4.22;3.52;;;;;;;20.68;85.37;152852.83;1670914;83;22082;-68
2022/05/26 10:47:17;;;;;;;5.78;3.70;;;;;;;20.63;85.23;152838.44;1724709;83;21497;-65
2022/05/26 10:50:10;;;;;;;4.72;3.60;;;;;;;20.61;84.81;152834.56;1722808;83;21118;-63
2022/05/26 10:52:46;;;;;;;6.17;3.65;;;;;;;20.52;84.81;152812.34;1660587;83;21092;-64
2022/05/26 10:55:25;;;;;;;4.40;3.77;;;;;;;20.47;85.63;152800.56;1690996;84;21517;-62
2022/05/26 10:58:17;;;;;;;6.80;4.62;;;;;;;20.49;85.95;152804.50;1714123;82;20996;-61
2022/05/26 11:00:44;;;;;;;8.40;4.50;;;;;;;20.49;85.92;152803.19;1698942;83;21525;-62
2022/05/26 11:03:16;;;;;;;7.12;4.78;;;;;;;20.44;85.91;152791.41;1724455;82;21019;-62
2022/05/26 11:05:48;;;;;;;6.53;4.20;;;;;;;20.42;86.12;152786.19;1689102;84;21128;-62
2022/05/26 11:08:41;;;;;;;6.17;4.15;;;;;;;20.44;86.12;152791.41;1717120;83;21035;-62
2022/05/26 11:11:39;;;;;;;6.00;4.20;;;;;;;20.50;86.03;152807.13;1715589;82;21565;-62
2022/05/26 11:17:22;;;;;;;4.72;3.40;;;;;;;20.63;84.66;152838.44;1714622;83;21072;-62
2022/05/26 11:20:01;;;;;;;6.47;3.52;;;;;;;20.70;83.58;152858.06;1711711;83;21131;-62
2022/05/26 11:22:28;;;;;;;5.83;3.90;;;;;;;20.78;83.06;152876.33;1710061;83;21489;-62
2022/05/26 11:24:57;;;;;;;5.03;3.70;;;;;;;20.93;82.39;152915.59;1715917;83;21044;-63
2022/05/26 11:27:44;;;;;;;5.47;3.40;;;;;;;21.08;81.22;152953.48;1700760;83;21157;-63
2022/05/26 11:38:34;;;;;;;5.25;3.60;;;;;;;21.86;76.72;153149.66;1724233;83;21104;-63
2022/05/26 11:41:05;;;;;;;6.87;3.33;;;;;;;21.97;74.72;153178.39;1703285;83;21076;-63
2022/05/26 11:43:46;;;;;;;5.83;4.12;;;;;;;21.94;73.83;153170.55;1698380;83;21031;-64
2022/05/26 11:46:44;;;;;;;4.97;3.40;;;;;;;21.93;73.61;153167.94;1709227;83;21456;-63
2022/05/26 11:49:30;;;;;;;6.05;3.60;;;;;;;21.83;72.96;153143.09;1724659;83;21077;-63
2022/05/26 11:51:58;;;;;;;5.70;4.15;;;;;;;21.69;73.33;153107.80;1611450;88;21649;-63
2022/05/26 11:54:58;;;;;;;5.95;3.87;;;;;;;21.62;73.98;153089.45;1694656;83;21264;-63
2022/05/26 11:57:40;;;;;;;4.72;3.75;;;;;;;21.58;74.05;153080.28;1698350;81;20993;-63
2022/05/26 12:00:25;;;;;;;6.10;3.98;;;;;;;21.41;73.81;153035.83;1721691;82;21043;-62
2022/05/26 12:02:54;;;;;;;5.17;3.70;;;;;;;21.28;74.17;153003.16;1722332;82;21163;-63
2022/05/26 12:05:35;;;;;;;4.40;3.77;;;;;;;21.24;74.85;152992.72;1719888;83;21099;-63
2022/05/26 12:08:06;;;;;;;7.58;4.05;;;;;;;21.31;74.95;153011.00;1713436;83;21576;-64
2022/05/26 12:10:44;;;;;;;5.97;4.15;;;;;;;21.38;75.20;153029.33;1701151;83;21102;-64
2022/05/26 12:13:28;;;;;;;4.87;3.87;;;;;;;21.47;75.29;153052.83;1729231;82;40661;-63
2022/05/26 12:16:18;;;;;;;7.90;4.20;;;;;;;21.58;75.20;153080.28;1717608;82;21251;-63
2022/05/26 12:19:01;;;;;;;6.40;4.15;;;;;;;21.67;75.45;153102.56;1712592;82;21083;-64
2022/05/26 12:21:36;;;;;;;6.47;4.80;;;;;;;21.84;75.09;153144.42;1707659;83;21251;-62
2022/05/26 12:24:35;;;;;;;7.10;4.47;;;;;;;21.92;74.81;153165.31;1706778;83;21057;-63
2022/05/26 12:27:03;;;;;;;6.42;4.45;;;;;;;22.00;74.76;153186.28;1706583;83;21718;-62
2022/05/26 12:29:52;;;;;;;6.45;4.37;;;;;;;22.15;74.21;153224.19;1717479;82;21040;-62
2022/05/26 12:32:29;;;;;;;6.67;4.70;;;;;;;22.25;73.96;153247.72;1712903;82;21060;-63